sensor_id;sensor_type;location;lat;lon;timestamp;pressure;altitude;pressure_sealevel;temperature
58102;BMP280;52034;51.926;6.320;2023-05-21T00:00:00;101830.84;;;15.73
58102;BMP280;52034;51.926;6.320;2023-05-21T00:01:12;101823.09;;;15.73
58102;BMP280;52034;51.926;6.320;2023-05-21T00:02:15;101825.84;;;15.71
58102;BMP280;52034;51.926;6.320;2023-05-21T00:03:17;101829.56;;;15.76
58102;BMP280;52034;51.926;6.320;2023-05-21T00:04:17;101827.44;;;15.76
58102;BMP280;52034;51.926;6.320;2023-05-21T00:05:17;101820.31;;;15.75
58102;BMP280;52034;51.926;6.320;2023-05-21T00:06:18;101824.53;;;15.74
58102;BMP280;52034;51.926;6.320;2023-05-21T00:07:19;101826.72;;;15.76
58102;BMP280;52034;51.926;6.320;2023-05-21T00:08:20;101818.16;;;15.74
58102;BMP280;52034;51.926;6.320;2023-05-21T00:09:20;101814.53;;;15.71
58102;BMP280;52034;51.926;6.320;2023-05-21T00:10:20;101806.75;;;15.72
58102;BMP280;52034;51.926;6.320;2023-05-21T00:11:21;101811.00;;;15.71
58102;BMP280;52034;51.926;6.320;2023-05-21T00:12:21;101813.09;;;15.70
58102;BMP280;52034;51.926;6.320;2023-05-21T00:13:21;101810.94;;;15.69
58102;BMP280;52034;51.926;6.320;2023-05-21T00:14:22;101806.72;;;15.70
58102;BMP280;52034;51.926;6.320;2023-05-21T00:15:22;101806.56;;;15.66
58102;BMP280;52034;51.926;6.320;2023-05-21T00:16:23;101808.19;;;15.71
58102;BMP280;52034;51.926;6.320;2023-05-21T00:17:24;101806.75;;;15.72
58102;BMP280;52034;51.926;6.320;2023-05-21T00:18:25;101810.28;;;15.70
58102;BMP280;52034;51.926;6.320;2023-05-21T00:19:25;101809.53;;;15.70
58102;BMP280;52034;51.926;6.320;2023-05-21T00:20:29;101810.28;;;15.70
58102;BMP280;52034;51.926;6.320;2023-05-21T00:21:31;101806.16;;;15.75
58102;BMP280;52034;51.926;6.320;2023-05-21T00:22:32;101809.72;;;15.76
58102;BMP280;52034;51.926;6.320;2023-05-21T00:23:32;101805.47;;;15.75
58102;BMP280;52034;51.926;6.320;2023-05-21T00:24:33;101793.28;;;15.70
58102;BMP280;52034;51.926;6.320;2023-05-21T00:25:33;101804.59;;;15.70
58102;BMP280;52034;51.926;6.320;2023-05-21T00:26:33;101801.09;;;15.72
58102;BMP280;52034;51.926;6.320;2023-05-21T00:27:34;101800.38;;;15.71
58102;BMP280;52034;51.926;6.320;2023-05-21T00:28:34;101797.50;;;15.69
58102;BMP280;52034;51.926;6.320;2023-05-21T00:29:35;101796.16;;;15.72
58102;BMP280;52034;51.926;6.320;2023-05-21T00:30:35;101796.22;;;15.74
58102;BMP280;52034;51.926;6.320;2023-05-21T00:31:36;101796.13;;;15.70
58102;BMP280;52034;51.926;6.320;2023-05-21T00:32:36;101784.16;;;15.74
58102;BMP280;52034;51.926;6.320;2023-05-21T00:33:37;101794.03;;;15.73
58102;BMP280;52034;51.926;6.320;2023-05-21T00:34:37;101791.94;;;15.73
58102;BMP280;52034;51.926;6.320;2023-05-21T00:35:37;101791.19;;;15.71
58102;BMP280;52034;51.926;6.320;2023-05-21T00:36:38;101789.19;;;15.75
58102;BMP280;52034;51.926;6.320;2023-05-21T00:37:39;101792.75;;;15.76
58102;BMP280;52034;51.926;6.320;2023-05-21T00:38:40;101785.75;;;15.79
58102;BMP280;52034;51.926;6.320;2023-05-21T00:39:42;101791.41;;;15.79
58102;BMP280;52034;51.926;6.320;2023-05-21T00:40:43;101790.63;;;15.76
58102;BMP280;52034;51.926;6.320;2023-05-21T00:41:43;101784.31;;;15.78
58102;BMP280;52034;51.926;6.320;2023-05-21T00:42:45;101792.06;;;15.77
58102;BMP280;52034;51.926;6.320;2023-05-21T00:43:47;101788.66;;;15.81
58102;BMP280;52034;51.926;6.320;2023-05-21T00:44:48;101785.56;;;15.73
58102;BMP280;52034;51.926;6.320;2023-05-21T00:45:48;101794.91;;;15.77
58102;BMP280;52034;51.926;6.320;2023-05-21T00:46:49;101789.19;;;15.75
58102;BMP280;52034;51.926;6.320;2023-05-21T00:47:53;101782.81;;;15.75
58102;BMP280;52034;51.926;6.320;2023-05-21T00:48:53;101789.81;;;15.74
58102;BMP280;52034;51.926;6.320;2023-05-21T00:49:54;101771.47;;;15.75
58102;BMP280;52034;51.926;6.320;2023-05-21T00:50:54;101779.13;;;15.70
58102;BMP280;52034;51.926;6.320;2023-05-21T00:51:55;101782.00;;;15.72
58102;BMP280;52034;51.926;6.320;2023-05-21T00:52:56;101777.06;;;15.73
58102;BMP280;52034;51.926;6.320;2023-05-21T00:53:58;101780.69;;;15.75
58102;BMP280;52034;51.926;6.320;2023-05-21T00:54:59;101783.34;;;15.69
58102;BMP280;52034;51.926;6.320;2023-05-21T00:56:00;101780.50;;;15.69
58102;BMP280;52034;51.926;6.320;2023-05-21T00:57:02;101782.63;;;15.69
58102;BMP280;52034;51.926;6.320;2023-05-21T00:58:03;101780.38;;;15.65
58102;BMP280;52034;51.926;6.320;2023-05-21T00:59:03;101780.31;;;15.63
58102;BMP280;52034;51.926;6.320;2023-05-21T01:00:05;101781.69;;;15.62
58102;BMP280;52034;51.926;6.320;2023-05-21T01:01:11;101784.50;;;15.62
58102;BMP280;52034;51.926;6.320;2023-05-21T01:02:12;101783.16;;;15.63
58102;BMP280;52034;51.926;6.320;2023-05-21T01:03:17;101782.38;;;15.61
58102;BMP280;52034;51.926;6.320;2023-05-21T01:04:18;101772.28;;;15.56
58102;BMP280;52034;51.926;6.320;2023-05-21T01:05:19;101780.78;;;15.56
58102;BMP280;52034;51.926;6.320;2023-05-21T01:06:21;101779.47;;;15.59
58102;BMP280;52034;51.926;6.320;2023-05-21T01:07:21;101780.78;;;15.56
58102;BMP280;52034;51.926;6.320;2023-05-21T01:08:22;101773.06;;;15.58
58102;BMP280;52034;51.926;6.320;2023-05-21T01:09:26;101773.88;;;15.61
58102;BMP280;52034;51.926;6.320;2023-05-21T01:10:27;101785.78;;;15.57
58102;BMP280;52034;51.926;6.320;2023-05-21T01:11:39;101777.38;;;15.59
58102;BMP280;52034;51.926;6.320;2023-05-21T01:12:41;101768.88;;;15.59
58102;BMP280;52034;51.926;6.320;2023-05-21T01:13:43;101775.91;;;15.58
58102;BMP280;52034;51.926;6.320;2023-05-21T01:14:45;101778.09;;;15.60
58102;BMP280;52034;51.926;6.320;2023-05-21T01:15:46;101772.28;;;15.56
58102;BMP280;52034;51.926;6.320;2023-05-21T01:16:48;101768.16;;;15.59
58102;BMP280;52034;51.926;6.320;2023-05-21T01:17:50;101773.81;;;15.59
58102;BMP280;52034;51.926;6.320;2023-05-21T01:18:50;101768.16;;;15.59
58102;BMP280;52034;51.926;6.320;2023-05-21T01:19:53;101766.69;;;15.58
58102;BMP280;52034;51.926;6.320;2023-05-21T01:20:54;101768.81;;;15.57
58102;BMP280;52034;51.926;6.320;2023-05-21T01:22:05;101773.19;;;15.62
58102;BMP280;52034;51.926;6.320;2023-05-21T01:23:06;101767.47;;;15.60
58102;BMP280;52034;51.926;6.320;2023-05-21T01:24:07;101763.78;;;15.56
58102;BMP280;52034;51.926;6.320;2023-05-21T01:25:07;101767.94;;;15.53
58102;BMP280;52034;51.926;6.320;2023-05-21T01:26:08;101764.53;;;15.56
58102;BMP280;52034;51.926;6.320;2023-05-21T01:27:11;101761.56;;;15.52
58102;BMP280;52034;51.926;6.320;2023-05-21T01:28:12;101762.41;;;15.57
58102;BMP280;52034;51.926;6.320;2023-05-21T01:29:13;101762.38;;;15.55
58102;BMP280;52034;51.926;6.320;2023-05-21T01:30:15;101766.56;;;15.54
58102;BMP280;52034;51.926;6.320;2023-05-21T01:31:30;101757.28;;;15.51
58102;BMP280;52034;51.926;6.320;2023-05-21T01:33:16;101762.22;;;15.51
58102;BMP280;52034;51.926;6.320;2023-05-21T01:34:20;101761.56;;;15.52
58102;BMP280;52034;51.926;6.320;2023-05-21T01:35:30;101755.19;;;15.52
58102;BMP280;52034;51.926;6.320;2023-05-21T01:36:37;101760.19;;;15.53
58102;BMP280;52034;51.926;6.320;2023-05-21T01:37:51;101759.47;;;15.53
58102;BMP280;52034;51.926;6.320;2023-05-21T01:39:16;101763.47;;;15.46
58102;BMP280;52034;51.926;6.320;2023-05-21T01:40:38;101759.91;;;15.45
58102;BMP280;52034;51.926;6.320;2023-05-21T01:41:42;101751.41;;;15.43
58102;BMP280;52034;51.926;6.320;2023-05-21T01:42:45;101756.97;;;15.41
58102;BMP280;52034;51.926;6.320;2023-05-21T01:43:47;101752.59;;;15.36
58102;BMP280;52034;51.926;6.320;2023-05-21T01:44:50;101754.56;;;15.32
58102;BMP280;52034;51.926;6.320;2023-05-21T01:45:53;101752.44;;;15.32
58102;BMP280;52034;51.926;6.320;2023-05-21T01:46:55;101753.09;;;15.31
58102;BMP280;52034;51.926;6.320;2023-05-21T01:47:56;101751.56;;;15.28
58102;BMP280;52034;51.926;6.320;2023-05-21T01:48:57;101750.16;;;15.27
58102;BMP280;52034;51.926;6.320;2023-05-21T01:49:58;101745.22;;;15.27
58102;BMP280;52034;51.926;6.320;2023-05-21T01:51:02;101748.63;;;15.24
58102;BMP280;52034;51.926;6.320;2023-05-21T01:52:02;101755.66;;;15.23
58102;BMP280;52034;51.926;6.320;2023-05-21T01:53:04;101745.59;;;15.18
58102;BMP280;52034;51.926;6.320;2023-05-21T01:54:05;101744.09;;;15.15
58102;BMP280;52034;51.926;6.320;2023-05-21T01:55:05;101744.81;;;15.15
58102;BMP280;52034;51.926;6.320;2023-05-21T01:56:06;101743.97;;;15.11
58102;BMP280;52034;51.926;6.320;2023-05-21T01:57:06;101746.72;;;15.09
58102;BMP280;52034;51.926;6.320;2023-05-21T01:58:07;101745.34;;;15.10
58102;BMP280;52034;51.926;6.320;2023-05-21T01:59:08;101754.47;;;15.08
58102;BMP280;52034;51.926;6.320;2023-05-21T02:00:08;101757.97;;;15.07
58102;BMP280;52034;51.926;6.320;2023-05-21T02:01:15;101748.81;;;15.08
58102;BMP280;52034;51.926;6.320;2023-05-21T02:02:16;101748.81;;;15.08
58102;BMP280;52034;51.926;6.320;2023-05-21T02:03:17;101747.38;;;15.07
58102;BMP280;52034;51.926;6.320;2023-05-21T02:04:18;101752.09;;;15.01
58102;BMP280;52034;51.926;6.320;2023-05-21T02:05:18;101744.81;;;14.94
58102;BMP280;52034;51.926;6.320;2023-05-21T02:06:19;101749.06;;;14.95
58102;BMP280;52034;51.926;6.320;2023-05-21T02:07:19;101744.22;;;14.98
58102;BMP280;52034;51.926;6.320;2023-05-21T02:08:19;101749.72;;;14.93
58102;BMP280;52034;51.926;6.320;2023-05-21T02:09:22;101745.47;;;14.93
58102;BMP280;52034;51.926;6.320;2023-05-21T02:10:23;101751.03;;;14.90
58102;BMP280;52034;51.926;6.320;2023-05-21T02:11:23;101741.09;;;14.89
58102;BMP280;52034;51.926;6.320;2023-05-21T02:12:23;101752.41;;;14.89
58102;BMP280;52034;51.926;6.320;2023-05-21T02:13:24;101746.75;;;14.89
58102;BMP280;52034;51.926;6.320;2023-05-21T02:14:24;101745.34;;;14.89
58102;BMP280;52034;51.926;6.320;2023-05-21T02:15:24;101750.25;;;14.88
58102;BMP280;52034;51.926;6.320;2023-05-21T02:16:25;101741.03;;;14.88
58102;BMP280;52034;51.926;6.320;2023-05-21T02:17:25;101745.97;;;14.87
58102;BMP280;52034;51.926;6.320;2023-05-21T02:18:29;101747.44;;;14.88
58102;BMP280;52034;51.926;6.320;2023-05-21T02:19:30;101745.91;;;14.85
58102;BMP280;52034;51.926;6.320;2023-05-21T02:20:30;101737.50;;;14.87
58102;BMP280;52034;51.926;6.320;2023-05-21T02:21:31;101743.06;;;14.85
58102;BMP280;52034;51.926;6.320;2023-05-21T02:22:31;101739.47;;;14.83
58102;BMP280;52034;51.926;6.320;2023-05-21T02:23:32;101741.56;;;14.82
58102;BMP280;52034;51.926;6.320;2023-05-21T02:24:32;101739.53;;;14.85
58102;BMP280;52034;51.926;6.320;2023-05-21T02:25:32;101735.91;;;14.82
58102;BMP280;52034;51.926;6.320;2023-05-21T02:26:33;101735.75;;;14.78
58102;BMP280;52034;51.926;6.320;2023-05-21T02:27:36;101735.03;;;14.77
58102;BMP280;52034;51.926;6.320;2023-05-21T02:28:37;101732.81;;;14.74
58102;BMP280;52034;51.926;6.320;2023-05-21T02:29:38;101741.34;;;14.76
58102;BMP280;52034;51.926;6.320;2023-05-21T02:30:38;101742.81;;;14.77
58102;BMP280;52034;51.926;6.320;2023-05-21T02:31:39;101744.19;;;14.76
58102;BMP280;52034;51.926;6.320;2023-05-21T02:32:40;101730.09;;;14.78
58102;BMP280;52034;51.926;6.320;2023-05-21T02:33:43;101729.25;;;14.74
58102;BMP280;52034;51.926;6.320;2023-05-21T02:34:44;101735.69;;;14.76
58102;BMP280;52034;51.926;6.320;2023-05-21T02:35:47;101734.78;;;14.70
58102;BMP280;52034;51.926;6.320;2023-05-21T02:36:47;101737.69;;;14.72
58102;BMP280;52034;51.926;6.320;2023-05-21T02:37:51;101736.81;;;14.67
58102;BMP280;52034;51.926;6.320;2023-05-21T02:38:51;101728.31;;;14.67
58102;BMP280;52034;51.926;6.320;2023-05-21T02:39:55;101734.69;;;14.68
58102;BMP280;52034;51.926;6.320;2023-05-21T02:40:55;101737.38;;;14.64
58102;BMP280;52034;51.926;6.320;2023-05-21T02:41:57;101730.34;;;14.65
58102;BMP280;52034;51.926;6.320;2023-05-21T02:42:57;101742.38;;;14.65
58102;BMP280;52034;51.926;6.320;2023-05-21T02:43:58;101729.72;;;14.66
58102;BMP280;52034;51.926;6.320;2023-05-21T02:44:58;101731.09;;;14.65
58102;BMP280;52034;51.926;6.320;2023-05-21T02:45:59;101729.63;;;14.64
58102;BMP280;52034;51.926;6.320;2023-05-21T02:47:00;101738.03;;;14.62
58102;BMP280;52034;51.926;6.320;2023-05-21T02:48:01;101736.59;;;14.61
58102;BMP280;52034;51.926;6.320;2023-05-21T02:49:02;101735.84;;;14.61
58102;BMP280;52034;51.926;6.320;2023-05-21T02:50:05;101738.66;;;14.59
58102;BMP280;52034;51.926;6.320;2023-05-21T02:51:05;101732.16;;;14.56
58102;BMP280;52034;51.926;6.320;2023-05-21T02:52:06;101734.44;;;14.60
58102;BMP280;52034;51.926;6.320;2023-05-21T02:53:06;101734.34;;;14.58
58102;BMP280;52034;51.926;6.320;2023-05-21T02:54:07;101724.50;;;14.59
58102;BMP280;52034;51.926;6.320;2023-05-21T02:55:08;101724.34;;;14.55
58102;BMP280;52034;51.926;6.320;2023-05-21T02:56:08;101734.22;;;14.54
58102;BMP280;52034;51.926;6.320;2023-05-21T02:57:09;101727.81;;;14.53
58102;BMP280;52034;51.926;6.320;2023-05-21T02:58:09;101733.28;;;14.47
58102;BMP280;52034;51.926;6.320;2023-05-21T02:59:12;101724.72;;;14.45
58102;BMP280;52034;51.926;6.320;2023-05-21T03:00:13;101740.91;;;14.43
58102;BMP280;52034;51.926;6.320;2023-05-21T03:01:14;101728.13;;;14.42
58102;BMP280;52034;51.926;6.320;2023-05-21T03:02:16;101737.97;;;14.41
58102;BMP280;52034;51.926;6.320;2023-05-21T03:03:16;101731.53;;;14.38
58102;BMP280;52034;51.926;6.320;2023-05-21T03:04:17;101726.56;;;14.37
58102;BMP280;52034;51.926;6.320;2023-05-21T03:05:17;101727.84;;;14.34
58102;BMP280;52034;51.926;6.320;2023-05-21T03:06:18;101731.19;;;14.28
58102;BMP280;52034;51.926;6.320;2023-05-21T03:07:18;101725.53;;;14.28
58102;BMP280;52034;51.926;6.320;2023-05-21T03:08:19;101724.03;;;14.25
58102;BMP280;52034;51.926;6.320;2023-05-21T03:09:21;101720.44;;;14.25
58102;BMP280;52034;51.926;6.320;2023-05-21T03:10:21;101723.28;;;14.25
58102;BMP280;52034;51.926;6.320;2023-05-21T03:11:22;101719.78;;;14.26
58102;BMP280;52034;51.926;6.320;2023-05-21T03:12:22;101725.59;;;14.30
58102;BMP280;52034;51.926;6.320;2023-05-21T03:13:22;101723.34;;;14.27
58102;BMP280;52034;51.926;6.320;2023-05-21T03:14:23;101722.78;;;14.30
58102;BMP280;52034;51.926;6.320;2023-05-21T03:15:24;101715.66;;;14.29
58102;BMP280;52034;51.926;6.320;2023-05-21T03:16:25;101724.25;;;14.31
58102;BMP280;52034;51.926;6.320;2023-05-21T03:17:25;101722.09;;;14.32
58102;BMP280;52034;51.926;6.320;2023-05-21T03:18:26;101716.53;;;14.34
58102;BMP280;52034;51.926;6.320;2023-05-21T03:19:28;101716.44;;;14.32
58102;BMP280;52034;51.926;6.320;2023-05-21T03:20:29;101714.28;;;14.30
58102;BMP280;52034;51.926;6.320;2023-05-21T03:21:29;101715.59;;;14.27
58102;BMP280;52034;51.926;6.320;2023-05-21T03:22:31;101721.84;;;14.24
58102;BMP280;52034;51.926;6.320;2023-05-21T03:23:31;101706.09;;;14.19
58102;BMP280;52034;51.926;6.320;2023-05-21T03:24:32;101719.66;;;14.22
58102;BMP280;52034;51.926;6.320;2023-05-21T03:25:34;101717.41;;;14.19
58102;BMP280;52034;51.926;6.320;2023-05-21T03:26:35;101706.84;;;14.19
58102;BMP280;52034;51.926;6.320;2023-05-21T03:27:37;101713.88;;;14.18
58102;BMP280;52034;51.926;6.320;2023-05-21T03:28:39;101711.06;;;14.18
58102;BMP280;52034;51.926;6.320;2023-05-21T03:29:40;101712.50;;;14.19
58102;BMP280;52034;51.926;6.320;2023-05-21T03:30:42;101711.75;;;14.19
58102;BMP280;52034;51.926;6.320;2023-05-21T03:32:15;101710.31;;;14.18
58102;BMP280;52034;51.926;6.320;2023-05-21T03:33:16;101713.88;;;14.18
58102;BMP280;52034;51.926;6.320;2023-05-21T03:34:18;101716.47;;;14.12
58102;BMP280;52034;51.926;6.320;2023-05-21T03:35:19;101716.47;;;14.12
58102;BMP280;52034;51.926;6.320;2023-05-21T03:36:19;101718.44;;;14.08
58102;BMP280;52034;51.926;6.320;2023-05-21T03:37:20;101714.19;;;14.09
58102;BMP280;52034;51.926;6.320;2023-05-21T03:38:21;101715.66;;;14.10
58102;BMP280;52034;51.926;6.320;2023-05-21T03:39:21;101715.72;;;14.12
58102;BMP280;52034;51.926;6.320;2023-05-21T03:40:22;101720.00;;;14.13
58102;BMP280;52034;51.926;6.320;2023-05-21T03:41:22;101713.47;;;14.08
58102;BMP280;52034;51.926;6.320;2023-05-21T03:42:30;101705.00;;;14.08
58102;BMP280;52034;51.926;6.320;2023-05-21T03:43:31;101717.13;;;14.11
58102;BMP280;52034;51.926;6.320;2023-05-21T03:44:31;101715.03;;;14.11
58102;BMP280;52034;51.926;6.320;2023-05-21T03:45:48;101718.44;;;14.08
58102;BMP280;52034;51.926;6.320;2023-05-21T03:47:07;101708.50;;;14.07
58102;BMP280;52034;51.926;6.320;2023-05-21T03:48:09;101705.69;;;14.07
58102;BMP280;52034;51.926;6.320;2023-05-21T03:49:10;101707.13;;;14.08
58102;BMP280;52034;51.926;6.320;2023-05-21T03:50:12;101703.56;;;14.07
58102;BMP280;52034;51.926;6.320;2023-05-21T03:51:12;101709.78;;;14.04
58102;BMP280;52034;51.926;6.320;2023-05-21T03:52:13;101709.84;;;14.06
58102;BMP280;52034;51.926;6.320;2023-05-21T03:53:14;101708.41;;;14.05
58102;BMP280;52034;51.926;6.320;2023-05-21T03:54:14;101707.69;;;14.04
58102;BMP280;52034;51.926;6.320;2023-05-21T03:55:15;101705.50;;;14.03
58102;BMP280;52034;51.926;6.320;2023-05-21T03:56:15;101711.97;;;14.05
58102;BMP280;52034;51.926;6.320;2023-05-21T03:57:16;101707.13;;;14.08
58102;BMP280;52034;51.926;6.320;2023-05-21T03:58:16;101707.19;;;14.10
58102;BMP280;52034;51.926;6.320;2023-05-21T03:59:17;101708.50;;;14.07
58102;BMP280;52034;51.926;6.320;2023-05-21T04:00:18;101712.78;;;14.08
58102;BMP280;52034;51.926;6.320;2023-05-21T04:01:19;101711.34;;;14.07
58102;BMP280;52034;51.926;6.320;2023-05-21T04:02:24;101701.38;;;14.06
58102;BMP280;52034;51.926;6.320;2023-05-21T04:03:26;101706.31;;;14.05
58102;BMP280;52034;51.926;6.320;2023-05-21T04:04:27;101708.31;;;14.03
58102;BMP280;52034;51.926;6.320;2023-05-21T04:05:28;101709.63;;;14.00
58102;BMP280;52034;51.926;6.320;2023-05-21T04:06:29;101707.53;;;14.00
58102;BMP280;52034;51.926;6.320;2023-05-21T04:07:29;101715.44;;;14.04
58102;BMP280;52034;51.926;6.320;2023-05-21T04:08:30;101714.69;;;14.03
58102;BMP280;52034;51.926;6.320;2023-05-21T04:09:30;101716.25;;;14.06
58102;BMP280;52034;51.926;6.320;2023-05-21T04:10:31;101722.44;;;14.03
58102;BMP280;52034;51.926;6.320;2023-05-21T04:11:31;101719.81;;;14.07
58102;BMP280;52034;51.926;6.320;2023-05-21T04:12:31;101725.34;;;14.05
58102;BMP280;52034;51.926;6.320;2023-05-21T04:13:31;101730.25;;;14.04
58102;BMP280;52034;51.926;6.320;2023-05-21T04:14:32;101720.44;;;14.05
58102;BMP280;52034;51.926;6.320;2023-05-21T04:15:33;101724.06;;;14.08
58102;BMP280;52034;51.926;6.320;2023-05-21T04:16:34;101723.34;;;14.07
58102;BMP280;52034;51.926;6.320;2023-05-21T04:17:37;101731.81;;;14.07
58102;BMP280;52034;51.926;6.320;2023-05-21T04:18:39;101733.91;;;14.07
58102;BMP280;52034;51.926;6.320;2023-05-21T04:19:40;101735.38;;;14.08
58102;BMP280;52034;51.926;6.320;2023-05-21T04:20:41;101731.81;;;14.07
58102;BMP280;52034;51.926;6.320;2023-05-21T04:21:42;101726.81;;;14.06
58102;BMP280;52034;51.926;6.320;2023-05-21T04:22:44;101724.63;;;14.04
58102;BMP280;52034;51.926;6.320;2023-05-21T04:23:45;101725.44;;;14.07
58102;BMP280;52034;51.926;6.320;2023-05-21T04:25:01;101734.78;;;14.11
58102;BMP280;52034;51.926;6.320;2023-05-21T04:26:06;101734.06;;;14.11
58102;BMP280;52034;51.926;6.320;2023-05-21T04:27:07;101726.22;;;14.09
58102;BMP280;52034;51.926;6.320;2023-05-21T04:28:08;101740.44;;;14.11
58102;BMP280;52034;51.926;6.320;2023-05-21T04:29:09;101737.53;;;14.09
58102;BMP280;52034;51.926;6.320;2023-05-21T04:30:10;101736.16;;;14.10
58102;BMP280;52034;51.926;6.320;2023-05-21T04:31:11;101736.16;;;14.10
58102;BMP280;52034;51.926;6.320;2023-05-21T04:32:13;101733.31;;;14.10
58102;BMP280;52034;51.926;6.320;2023-05-21T04:33:14;101731.88;;;14.09
58102;BMP280;52034;51.926;6.320;2023-05-21T04:34:19;101728.31;;;14.09
58102;BMP280;52034;51.926;6.320;2023-05-21T04:35:19;101729.78;;;14.10
58102;BMP280;52034;51.926;6.320;2023-05-21T04:36:20;101732.03;;;14.13
58102;BMP280;52034;51.926;6.320;2023-05-21T04:37:20;101726.31;;;14.11
58102;BMP280;52034;51.926;6.320;2023-05-21T04:38:23;101729.16;;;14.11
58102;BMP280;52034;51.926;6.320;2023-05-21T04:39:26;101724.22;;;14.12
58102;BMP280;52034;51.926;6.320;2023-05-21T04:40:27;101734.19;;;14.15
58102;BMP280;52034;51.926;6.320;2023-05-21T04:41:28;101734.19;;;14.15
58102;BMP280;52034;51.926;6.320;2023-05-21T04:42:28;101727.13;;;14.14
58102;BMP280;52034;51.926;6.320;2023-05-21T04:43:29;101732.81;;;14.16
58102;BMP280;52034;51.926;6.320;2023-05-21T04:44:31;101735.63;;;14.16
58102;BMP280;52034;51.926;6.320;2023-05-21T04:45:33;101741.28;;;14.16
58102;BMP280;52034;51.926;6.320;2023-05-21T04:46:34;101735.63;;;14.16
58102;BMP280;52034;51.926;6.320;2023-05-21T04:47:35;101741.50;;;14.22
58102;BMP280;52034;51.926;6.320;2023-05-21T04:48:37;101737.91;;;14.19
58102;BMP280;52034;51.926;6.320;2023-05-21T04:49:38;101737.25;;;14.21
58102;BMP280;52034;51.926;6.320;2023-05-21T04:50:38;101735.88;;;14.22
58102;BMP280;52034;51.926;6.320;2023-05-21T04:51:40;101733.69;;;14.20
58102;BMP280;52034;51.926;6.320;2023-05-21T04:52:40;101734.50;;;14.23
58102;BMP280;52034;51.926;6.320;2023-05-21T04:53:41;101734.50;;;14.23
58102;BMP280;52034;51.926;6.320;2023-05-21T04:54:41;101728.13;;;14.22
58102;BMP280;52034;51.926;6.320;2023-05-21T04:55:42;101736.59;;;14.22
58102;BMP280;52034;51.926;6.320;2023-05-21T04:56:42;101729.50;;;14.21
58102;BMP280;52034;51.926;6.320;2023-05-21T04:57:43;101730.31;;;14.24
58102;BMP280;52034;51.926;6.320;2023-05-21T04:58:44;101729.56;;;14.23
58102;BMP280;52034;51.926;6.320;2023-05-21T04:59:45;101729.66;;;14.25
58102;BMP280;52034;51.926;6.320;2023-05-21T05:00:46;101723.91;;;14.23
58102;BMP280;52034;51.926;6.320;2023-05-21T05:01:49;101726.03;;;14.23
58102;BMP280;52034;51.926;6.320;2023-05-21T05:02:50;101723.91;;;14.23
58102;BMP280;52034;51.926;6.320;2023-05-21T05:03:50;101725.41;;;14.24
58102;BMP280;52034;51.926;6.320;2023-05-21T05:04:51;101722.47;;;14.22
58102;BMP280;52034;51.926;6.320;2023-05-21T05:05:52;101726.09;;;14.25
58102;BMP280;52034;51.926;6.320;2023-05-21T05:06:53;101725.53;;;14.28
58102;BMP280;52034;51.926;6.320;2023-05-21T05:07:54;101722.59;;;14.26
58102;BMP280;52034;51.926;6.320;2023-05-21T05:08:55;101726.88;;;14.27
58102;BMP280;52034;51.926;6.320;2023-05-21T05:09:56;101722.09;;;14.32
58102;BMP280;52034;51.926;6.320;2023-05-21T05:10:56;101720.69;;;14.31
58102;BMP280;52034;51.926;6.320;2023-05-21T05:11:57;101733.50;;;14.34
58102;BMP280;52034;51.926;6.320;2023-05-21T05:12:58;101725.75;;;14.34
58102;BMP280;52034;51.926;6.320;2023-05-21T05:13:59;101725.75;;;14.34
58102;BMP280;52034;51.926;6.320;2023-05-21T05:14:59;101728.72;;;14.38
58102;BMP280;52034;51.926;6.320;2023-05-21T05:16:00;101730.88;;;14.40
58102;BMP280;52034;51.926;6.320;2023-05-21T05:17:01;101728.91;;;14.44
58102;BMP280;52034;51.926;6.320;2023-05-21T05:18:02;101721.81;;;14.43
58102;BMP280;52034;51.926;6.320;2023-05-21T05:19:02;101721.91;;;14.45
58102;BMP280;52034;51.926;6.320;2023-05-21T05:20:03;101726.78;;;14.43
58102;BMP280;52034;51.926;6.320;2023-05-21T05:21:04;101720.28;;;14.40
58102;BMP280;52034;51.926;6.320;2023-05-21T05:22:05;101721.34;;;14.49
58102;BMP280;52034;51.926;6.320;2023-05-21T05:23:06;101711.91;;;14.42
58102;BMP280;52034;51.926;6.320;2023-05-21T05:24:07;101711.31;;;14.46
58102;BMP280;52034;51.926;6.320;2023-05-21T05:25:07;101715.50;;;14.45
58102;BMP280;52034;51.926;6.320;2023-05-21T05:26:09;101722.69;;;14.48
58102;BMP280;52034;51.926;6.320;2023-05-21T05:27:10;101713.56;;;14.49
58102;BMP280;52034;51.926;6.320;2023-05-21T05:28:10;101722.75;;;14.50
58102;BMP280;52034;51.926;6.320;2023-05-21T05:29:10;101722.09;;;14.51
58102;BMP280;52034;51.926;6.320;2023-05-21T05:30:11;101715.88;;;14.55
58102;BMP280;52034;51.926;6.320;2023-05-21T05:31:11;101723.66;;;14.54
58102;BMP280;52034;51.926;6.320;2023-05-21T05:32:11;101716.81;;;14.61
58102;BMP280;52034;51.926;6.320;2023-05-21T05:33:12;101716.81;;;14.61
58102;BMP280;52034;51.926;6.320;2023-05-21T05:34:12;101718.25;;;14.62
58102;BMP280;52034;51.926;6.320;2023-05-21T05:35:13;101713.31;;;14.63
58102;BMP280;52034;51.926;6.320;2023-05-21T05:36:13;101722.41;;;14.59
58102;BMP280;52034;51.926;6.320;2023-05-21T05:37:13;101709.00;;;14.60
58102;BMP280;52034;51.926;6.320;2023-05-21T05:38:14;101713.97;;;14.61
58102;BMP280;52034;51.926;6.320;2023-05-21T05:39:15;101712.56;;;14.60
58102;BMP280;52034;51.926;6.320;2023-05-21T05:40:15;101712.56;;;14.60
58102;BMP280;52034;51.926;6.320;2023-05-21T05:41:16;101712.59;;;14.62
58102;BMP280;52034;51.926;6.320;2023-05-21T05:42:17;101717.53;;;14.62
58102;BMP280;52034;51.926;6.320;2023-05-21T05:43:18;101718.13;;;14.58
58102;BMP280;52034;51.926;6.320;2023-05-21T05:44:19;101718.13;;;14.58
58102;BMP280;52034;51.926;6.320;2023-05-21T05:45:19;101717.47;;;14.60
58102;BMP280;52034;51.926;6.320;2023-05-21T05:46:21;101711.81;;;14.60
58102;BMP280;52034;51.926;6.320;2023-05-21T05:47:21;101712.03;;;14.66
58102;BMP280;52034;51.926;6.320;2023-05-21T05:48:22;101717.06;;;14.69
58102;BMP280;52034;51.926;6.320;2023-05-21T05:49:22;101709.97;;;14.68
58102;BMP280;52034;51.926;6.320;2023-05-21T05:50:23;101715.56;;;14.66